sensor_id;sensor_type;location;lat;lon;timestamp;P1;durP1;ratioP1;P2;durP2;ratioP2
52858;SDS011;38721;53.098;6.596;2023-04-03T00:02:16;3.10;;;1.45;;
52858;SDS011;38721;53.098;6.596;2023-04-03T00:04:42;1.95;;;1.27;;
52858;SDS011;38721;53.098;6.596;2023-04-03T00:07:08;2.85;;;0.90;;
52858;SDS011;38721;53.098;6.596;2023-04-03T00:09:33;2.33;;;1.00;;
52858;SDS011;38721;53.098;6.596;2023-04-03T00:11:59;2.08;;;0.90;;
52858;SDS011;38721;53.098;6.596;2023-04-03T00:14:25;1.60;;;0.88;;
52858;SDS011;38721;53.098;6.596;2023-04-03T00:16:55;0.82;;;0.73;;
52858;SDS011;38721;53.098;6.596;2023-04-03T00:19:23;1.83;;;0.85;;
52858;SDS011;38721;53.098;6.596;2023-04-03T00:21:49;2.35;;;1.00;;
52858;SDS011;38721;53.098;6.596;2023-04-03T00:24:15;2.08;;;1.00;;
52858;SDS011;38721;53.098;6.596;2023-04-03T00:26:41;2.20;;;1.38;;
52858;SDS011;38721;53.098;6.596;2023-04-03T00:29:07;2.63;;;1.10;;
52858;SDS011;38721;53.098;6.596;2023-04-03T00:31:33;2.10;;;1.23;;
52858;SDS011;38721;53.098;6.596;2023-04-03T00:33:58;3.13;;;1.05;;
52858;SDS011;38721;53.098;6.596;2023-04-03T00:36:24;2.75;;;1.20;;
52858;SDS011;38721;53.098;6.596;2023-04-03T00:38:50;3.33;;;1.15;;
52858;SDS011;38721;53.098;6.596;2023-04-03T00:41:16;3.75;;;1.38;;
52858;SDS011;38721;53.098;6.596;2023-04-03T00:43:41;3.00;;;1.20;;
52858;SDS011;38721;53.098;6.596;2023-04-03T00:46:07;2.72;;;1.23;;
52858;SDS011;38721;53.098;6.596;2023-04-03T00:48:40;1.90;;;1.00;;
52858;SDS011;38721;53.098;6.596;2023-04-03T00:51:11;3.72;;;1.20;;
52858;SDS011;38721;53.098;6.596;2023-04-03T00:56:13;3.95;;;1.40;;
52858;SDS011;38721;53.098;6.596;2023-04-03T00:58:49;2.10;;;1.30;;
52858;SDS011;38721;53.098;6.596;2023-04-03T01:01:27;4.13;;;1.60;;
52858;SDS011;38721;53.098;6.596;2023-04-03T01:03:54;2.97;;;1.30;;
52858;SDS011;38721;53.098;6.596;2023-04-03T01:06:21;3.03;;;1.30;;
52858;SDS011;38721;53.098;6.596;2023-04-03T01:08:51;4.72;;;1.40;;
52858;SDS011;38721;53.098;6.596;2023-04-03T01:11:20;2.80;;;1.70;;
52858;SDS011;38721;53.098;6.596;2023-04-03T01:13:46;4.10;;;1.33;;
52858;SDS011;38721;53.098;6.596;2023-04-03T01:16:12;3.22;;;1.52;;
52858;SDS011;38721;53.098;6.596;2023-04-03T01:18:39;3.13;;;1.55;;
52858;SDS011;38721;53.098;6.596;2023-04-03T01:21:23;2.40;;;1.30;;
52858;SDS011;38721;53.098;6.596;2023-04-03T01:24:28;2.45;;;1.50;;
52858;SDS011;38721;53.098;6.596;2023-04-03T01:26:59;2.97;;;1.17;;
52858;SDS011;38721;53.098;6.596;2023-04-03T01:29:28;7.38;;;1.25;;
52858;SDS011;38721;53.098;6.596;2023-04-03T01:31:55;3.17;;;1.60;;
52858;SDS011;38721;53.098;6.596;2023-04-03T01:34:22;3.42;;;1.45;;
52858;SDS011;38721;53.098;6.596;2023-04-03T01:36:49;2.95;;;1.50;;
52858;SDS011;38721;53.098;6.596;2023-04-03T01:39:16;3.15;;;1.50;;
52858;SDS011;38721;53.098;6.596;2023-04-03T01:41:42;3.83;;;1.58;;
52858;SDS011;38721;53.098;6.596;2023-04-03T01:44:07;3.13;;;1.55;;
52858;SDS011;38721;53.098;6.596;2023-04-03T01:46:33;3.40;;;1.50;;
52858;SDS011;38721;53.098;6.596;2023-04-03T01:48:59;2.90;;;1.40;;
52858;SDS011;38721;53.098;6.596;2023-04-03T01:51:25;3.03;;;1.40;;
52858;SDS011;38721;53.098;6.596;2023-04-03T01:53:50;4.85;;;1.70;;
52858;SDS011;38721;53.098;6.596;2023-04-03T01:56:16;2.67;;;1.50;;
52858;SDS011;38721;53.098;6.596;2023-04-03T01:58:42;2.88;;;1.42;;
52858;SDS011;38721;53.098;6.596;2023-04-03T02:01:08;3.17;;;1.60;;
52858;SDS011;38721;53.098;6.596;2023-04-03T02:03:36;5.05;;;1.90;;
52858;SDS011;38721;53.098;6.596;2023-04-03T02:06:02;2.75;;;1.60;;
52858;SDS011;38721;53.098;6.596;2023-04-03T02:08:28;5.25;;;1.80;;
52858;SDS011;38721;53.098;6.596;2023-04-03T02:10:53;3.22;;;1.63;;
52858;SDS011;38721;53.098;6.596;2023-04-03T02:13:19;3.50;;;1.67;;
52858;SDS011;38721;53.098;6.596;2023-04-03T02:15:45;3.38;;;1.35;;
52858;SDS011;38721;53.098;6.596;2023-04-03T02:18:11;4.88;;;1.80;;
52858;SDS011;38721;53.098;6.596;2023-04-03T02:20:37;3.92;;;1.50;;
52858;SDS011;38721;53.098;6.596;2023-04-03T02:23:03;5.68;;;1.83;;
52858;SDS011;38721;53.098;6.596;2023-04-03T02:25:32;4.97;;;1.70;;
52858;SDS011;38721;53.098;6.596;2023-04-03T02:27:58;5.88;;;1.80;;
52858;SDS011;38721;53.098;6.596;2023-04-03T02:30:24;3.47;;;1.85;;
52858;SDS011;38721;53.098;6.596;2023-04-03T02:32:50;6.10;;;1.58;;
52858;SDS011;38721;53.098;6.596;2023-04-03T02:35:15;5.68;;;1.90;;
52858;SDS011;38721;53.098;6.596;2023-04-03T02:37:41;3.38;;;1.70;;
52858;SDS011;38721;53.098;6.596;2023-04-03T02:40:07;4.65;;;1.50;;
52858;SDS011;38721;53.098;6.596;2023-04-03T02:42:33;6.63;;;1.95;;
52858;SDS011;38721;53.098;6.596;2023-04-03T02:44:59;5.25;;;1.92;;
52858;SDS011;38721;53.098;6.596;2023-04-03T02:47:27;4.80;;;1.80;;
52858;SDS011;38721;53.098;6.596;2023-04-03T02:49:53;7.28;;;1.80;;
52858;SDS011;38721;53.098;6.596;2023-04-03T02:52:22;4.18;;;1.80;;
52858;SDS011;38721;53.098;6.596;2023-04-03T02:54:50;6.00;;;1.90;;
52858;SDS011;38721;53.098;6.596;2023-04-03T02:57:16;3.05;;;1.75;;
52858;SDS011;38721;53.098;6.596;2023-04-03T02:59:42;4.40;;;1.90;;
52858;SDS011;38721;53.098;6.596;2023-04-03T03:02:08;5.55;;;2.22;;
52858;SDS011;38721;53.098;6.596;2023-04-03T03:04:34;4.57;;;2.03;;
52858;SDS011;38721;53.098;6.596;2023-04-03T03:07:00;5.88;;;2.20;;
52858;SDS011;38721;53.098;6.596;2023-04-03T03:09:26;3.65;;;2.03;;
52858;SDS011;38721;53.098;6.596;2023-04-03T03:11:52;3.72;;;2.00;;
52858;SDS011;38721;53.098;6.596;2023-04-03T03:14:18;3.88;;;2.08;;
52858;SDS011;38721;53.098;6.596;2023-04-03T03:16:44;5.50;;;2.15;;
52858;SDS011;38721;53.098;6.596;2023-04-03T03:19:10;4.40;;;2.13;;
52858;SDS011;38721;53.098;6.596;2023-04-03T03:21:36;5.40;;;2.30;;
52858;SDS011;38721;53.098;6.596;2023-04-03T03:24:02;5.03;;;2.05;;
52858;SDS011;38721;53.098;6.596;2023-04-03T03:26:28;5.30;;;2.08;;
52858;SDS011;38721;53.098;6.596;2023-04-03T03:28:57;5.00;;;2.38;;
52858;SDS011;38721;53.098;6.596;2023-04-03T03:31:22;8.05;;;2.55;;
52858;SDS011;38721;53.098;6.596;2023-04-03T03:33:48;5.50;;;2.47;;
52858;SDS011;38721;53.098;6.596;2023-04-03T03:36:14;4.85;;;2.40;;
52858;SDS011;38721;53.098;6.596;2023-04-03T03:38:40;5.57;;;2.42;;
52858;SDS011;38721;53.098;6.596;2023-04-03T03:41:06;6.80;;;2.60;;
52858;SDS011;38721;53.098;6.596;2023-04-03T03:43:31;5.63;;;2.10;;
52858;SDS011;38721;53.098;6.596;2023-04-03T03:45:57;5.60;;;2.40;;
52858;SDS011;38721;53.098;6.596;2023-04-03T03:48:23;6.65;;;2.70;;
52858;SDS011;38721;53.098;6.596;2023-04-03T03:50:49;4.43;;;2.45;;
52858;SDS011;38721;53.098;6.596;2023-04-03T03:53:14;5.82;;;2.38;;
52858;SDS011;38721;53.098;6.596;2023-04-03T03:55:40;6.55;;;3.33;;
52858;SDS011;38721;53.098;6.596;2023-04-03T03:58:06;6.07;;;2.70;;
52858;SDS011;38721;53.098;6.596;2023-04-03T04:00:32;6.50;;;3.28;;
52858;SDS011;38721;53.098;6.596;2023-04-03T04:02:58;7.28;;;2.75;;
52858;SDS011;38721;53.098;6.596;2023-04-03T04:05:23;6.10;;;2.78;;
52858;SDS011;38721;53.098;6.596;2023-04-03T04:07:49;4.60;;;2.60;;
52858;SDS011;38721;53.098;6.596;2023-04-03T04:10:15;5.18;;;2.45;;
52858;SDS011;38721;53.098;6.596;2023-04-03T04:12:41;7.97;;;2.70;;
52858;SDS011;38721;53.098;6.596;2023-04-03T04:15:07;6.88;;;2.80;;
52858;SDS011;38721;53.098;6.596;2023-04-03T04:17:33;9.07;;;2.63;;
52858;SDS011;38721;53.098;6.596;2023-04-03T04:20:00;4.90;;;2.30;;
52858;SDS011;38721;53.098;6.596;2023-04-03T04:22:27;5.30;;;2.17;;
52858;SDS011;38721;53.098;6.596;2023-04-03T04:24:56;5.50;;;2.45;;
52858;SDS011;38721;53.098;6.596;2023-04-03T04:27:22;5.25;;;2.53;;
52858;SDS011;38721;53.098;6.596;2023-04-03T04:29:47;6.43;;;2.67;;
52858;SDS011;38721;53.098;6.596;2023-04-03T04:32:13;5.85;;;2.67;;
52858;SDS011;38721;53.098;6.596;2023-04-03T04:34:39;4.63;;;2.53;;
52858;SDS011;38721;53.098;6.596;2023-04-03T04:37:05;6.40;;;2.80;;
52858;SDS011;38721;53.098;6.596;2023-04-03T04:39:30;5.28;;;2.42;;
52858;SDS011;38721;53.098;6.596;2023-04-03T04:41:56;6.18;;;2.42;;
52858;SDS011;38721;53.098;6.596;2023-04-03T04:44:25;7.93;;;3.50;;
52858;SDS011;38721;53.098;6.596;2023-04-03T04:46:50;6.03;;;2.90;;
52858;SDS011;38721;53.098;6.596;2023-04-03T04:49:16;6.63;;;3.05;;
52858;SDS011;38721;53.098;6.596;2023-04-03T04:51:42;6.03;;;2.80;;
52858;SDS011;38721;53.098;6.596;2023-04-03T04:54:07;5.43;;;2.53;;
52858;SDS011;38721;53.098;6.596;2023-04-03T04:56:33;7.13;;;2.60;;
52858;SDS011;38721;53.098;6.596;2023-04-03T04:58:59;7.43;;;2.92;;
52858;SDS011;38721;53.098;6.596;2023-04-03T05:01:27;7.88;;;3.35;;
52858;SDS011;38721;53.098;6.596;2023-04-03T05:03:54;6.82;;;2.42;;
52858;SDS011;38721;53.098;6.596;2023-04-03T05:06:19;6.05;;;2.90;;
52858;SDS011;38721;53.098;6.596;2023-04-03T05:08:45;4.75;;;2.88;;
52858;SDS011;38721;53.098;6.596;2023-04-03T05:11:11;6.90;;;2.88;;
52858;SDS011;38721;53.098;6.596;2023-04-03T05:13:36;7.43;;;2.58;;
52858;SDS011;38721;53.098;6.596;2023-04-03T05:16:02;7.70;;;2.60;;
52858;SDS011;38721;53.098;6.596;2023-04-03T05:18:31;8.52;;;3.60;;
52858;SDS011;38721;53.098;6.596;2023-04-03T05:20:57;13.27;;;3.47;;
52858;SDS011;38721;53.098;6.596;2023-04-03T05:23:23;6.35;;;3.28;;
52858;SDS011;38721;53.098;6.596;2023-04-03T05:25:52;7.32;;;2.95;;
52858;SDS011;38721;53.098;6.596;2023-04-03T05:28:18;6.00;;;2.90;;
52858;SDS011;38721;53.098;6.596;2023-04-03T05:30:44;10.90;;;3.20;;
52858;SDS011;38721;53.098;6.596;2023-04-03T05:33:12;5.55;;;3.00;;
52858;SDS011;38721;53.098;6.596;2023-04-03T05:35:39;7.95;;;3.85;;
52858;SDS011;38721;53.098;6.596;2023-04-03T05:38:06;4.78;;;3.53;;
52858;SDS011;38721;53.098;6.596;2023-04-03T05:40:32;5.18;;;3.42;;
52858;SDS011;38721;53.098;6.596;2023-04-03T05:42:57;7.32;;;3.90;;
52858;SDS011;38721;53.098;6.596;2023-04-03T05:45:23;6.82;;;3.72;;
52858;SDS011;38721;53.098;6.596;2023-04-03T05:47:49;9.00;;;3.88;;
52858;SDS011;38721;53.098;6.596;2023-04-03T05:50:15;8.55;;;3.35;;
52858;SDS011;38721;53.098;6.596;2023-04-03T05:52:42;8.70;;;3.88;;
52858;SDS011;38721;53.098;6.596;2023-04-03T05:55:10;9.15;;;3.35;;
52858;SDS011;38721;53.098;6.596;2023-04-03T05:57:36;10.90;;;3.72;;
52858;SDS011;38721;53.098;6.596;2023-04-03T06:00:03;11.60;;;3.63;;
52858;SDS011;38721;53.098;6.596;2023-04-03T06:02:33;8.55;;;3.80;;
52858;SDS011;38721;53.098;6.596;2023-04-03T06:04:59;7.15;;;3.63;;
52858;SDS011;38721;53.098;6.596;2023-04-03T06:07:25;8.30;;;3.63;;
52858;SDS011;38721;53.098;6.596;2023-04-03T06:09:54;8.43;;;3.47;;
52858;SDS011;38721;53.098;6.596;2023-04-03T06:12:23;8.20;;;3.92;;
52858;SDS011;38721;53.098;6.596;2023-04-03T06:14:49;6.55;;;3.60;;
52858;SDS011;38721;53.098;6.596;2023-04-03T06:17:16;7.75;;;3.45;;
52858;SDS011;38721;53.098;6.596;2023-04-03T06:19:43;9.32;;;3.70;;
52858;SDS011;38721;53.098;6.596;2023-04-03T06:22:09;9.40;;;3.58;;
52858;SDS011;38721;53.098;6.596;2023-04-03T06:24:36;6.18;;;3.15;;
52858;SDS011;38721;53.098;6.596;2023-04-03T06:27:05;6.35;;;3.10;;
52858;SDS011;38721;53.098;6.596;2023-04-03T06:29:31;11.07;;;3.38;;
52858;SDS011;38721;53.098;6.596;2023-04-03T06:31:57;6.15;;;2.85;;
52858;SDS011;38721;53.098;6.596;2023-04-03T06:34:22;7.05;;;3.28;;
52858;SDS011;38721;53.098;6.596;2023-04-03T06:36:48;6.40;;;3.05;;
52858;SDS011;38721;53.098;6.596;2023-04-03T06:39:16;9.27;;;3.17;;
52858;SDS011;38721;53.098;6.596;2023-04-03T06:41:45;7.80;;;3.40;;
52858;SDS011;38721;53.098;6.596;2023-04-03T06:44:11;9.20;;;3.17;;
52858;SDS011;38721;53.098;6.596;2023-04-03T06:46:38;8.32;;;3.17;;
52858;SDS011;38721;53.098;6.596;2023-04-03T06:49:04;5.85;;;2.95;;
52858;SDS011;38721;53.098;6.596;2023-04-03T06:51:36;6.05;;;3.08;;
52858;SDS011;38721;53.098;6.596;2023-04-03T06:54:02;8.85;;;3.28;;
52858;SDS011;38721;53.098;6.596;2023-04-03T06:56:30;7.40;;;3.17;;
52858;SDS011;38721;53.098;6.596;2023-04-03T06:58:56;7.50;;;3.22;;
52858;SDS011;38721;53.098;6.596;2023-04-03T07:01:23;6.47;;;3.17;;
52858;SDS011;38721;53.098;6.596;2023-04-03T07:03:51;7.05;;;3.15;;
52858;SDS011;38721;53.098;6.596;2023-04-03T07:06:18;9.10;;;3.20;;
52858;SDS011;38721;53.098;6.596;2023-04-03T07:08:45;10.35;;;3.35;;
52858;SDS011;38721;53.098;6.596;2023-04-03T07:11:11;6.40;;;2.70;;
52858;SDS011;38721;53.098;6.596;2023-04-03T07:13:38;6.75;;;3.42;;
52858;SDS011;38721;53.098;6.596;2023-04-03T07:16:04;9.23;;;3.70;;
52858;SDS011;38721;53.098;6.596;2023-04-03T07:18:33;6.60;;;3.10;;
52858;SDS011;38721;53.098;6.596;2023-04-03T07:21:03;8.32;;;3.03;;
52858;SDS011;38721;53.098;6.596;2023-04-03T07:23:29;6.63;;;3.13;;
52858;SDS011;38721;53.098;6.596;2023-04-03T07:25:55;8.85;;;2.78;;
52858;SDS011;38721;53.098;6.596;2023-04-03T07:28:21;7.63;;;3.35;;
52858;SDS011;38721;53.098;6.596;2023-04-03T07:30:52;9.30;;;3.35;;
52858;SDS011;38721;53.098;6.596;2023-04-03T07:33:25;6.22;;;2.97;;
52858;SDS011;38721;53.098;6.596;2023-04-03T07:35:51;4.82;;;2.55;;
52858;SDS011;38721;53.098;6.596;2023-04-03T07:38:18;7.60;;;2.58;;
52858;SDS011;38721;53.098;6.596;2023-04-03T07:40:47;7.53;;;2.50;;
52858;SDS011;38721;53.098;6.596;2023-04-03T07:43:15;6.60;;;2.72;;
52858;SDS011;38721;53.098;6.596;2023-04-03T07:45:42;10.10;;;2.88;;
52858;SDS011;38721;53.098;6.596;2023-04-03T07:48:10;9.68;;;3.28;;
52858;SDS011;38721;53.098;6.596;2023-04-03T07:50:37;5.78;;;2.80;;
52858;SDS011;38721;53.098;6.596;2023-04-03T07:53:04;6.05;;;2.10;;
52858;SDS011;38721;53.098;6.596;2023-04-03T07:55:31;7.70;;;3.00;;
52858;SDS011;38721;53.098;6.596;2023-04-03T07:58:01;5.53;;;2.45;;
52858;SDS011;38721;53.098;6.596;2023-04-03T08:00:26;5.45;;;2.30;;
52858;SDS011;38721;53.098;6.596;2023-04-03T08:02:52;6.32;;;2.53;;
52858;SDS011;38721;53.098;6.596;2023-04-03T08:05:18;6.90;;;2.00;;
52858;SDS011;38721;53.098;6.596;2023-04-03T08:07:45;6.43;;;2.53;;
52858;SDS011;38721;53.098;6.596;2023-04-03T08:10:11;5.70;;;2.20;;
52858;SDS011;38721;53.098;6.596;2023-04-03T08:12:40;4.70;;;1.95;;
52858;SDS011;38721;53.098;6.596;2023-04-03T08:15:06;6.25;;;2.50;;
52858;SDS011;38721;53.098;6.596;2023-04-03T08:17:36;5.85;;;2.67;;
52858;SDS011;38721;53.098;6.596;2023-04-03T08:20:02;4.40;;;2.38;;
52858;SDS011;38721;53.098;6.596;2023-04-03T08:22:32;7.03;;;2.67;;
52858;SDS011;38721;53.098;6.596;2023-04-03T08:25:00;7.15;;;2.97;;
52858;SDS011;38721;53.098;6.596;2023-04-03T08:27:27;8.52;;;2.50;;
52858;SDS011;38721;53.098;6.596;2023-04-03T08:29:53;7.05;;;2.47;;
52858;SDS011;38721;53.098;6.596;2023-04-03T08:32:20;7.55;;;2.30;;
52858;SDS011;38721;53.098;6.596;2023-04-03T08:34:45;2.92;;;2.17;;
52858;SDS011;38721;53.098;6.596;2023-04-03T08:37:11;4.60;;;2.40;;
52858;SDS011;38721;53.098;6.596;2023-04-03T08:39:37;5.43;;;2.35;;
52858;SDS011;38721;53.098;6.596;2023-04-03T08:42:05;6.07;;;2.17;;
52858;SDS011;38721;53.098;6.596;2023-04-03T08:44:39;6.30;;;2.40;;
52858;SDS011;38721;53.098;6.596;2023-04-03T08:55:18;4.47;;;1.98;;
52858;SDS011;38721;53.098;6.596;2023-04-03T08:58:05;4.57;;;1.80;;
52858;SDS011;38721;53.098;6.596;2023-04-03T09:03:15;4.53;;;1.90;;
52858;SDS011;38721;53.098;6.596;2023-04-03T09:08:30;3.95;;;1.85;;
52858;SDS011;38721;53.098;6.596;2023-04-03T09:11:25;4.53;;;2.10;;
52858;SDS011;38721;53.098;6.596;2023-04-03T09:17:00;4.03;;;1.88;;
52858;SDS011;38721;53.098;6.596;2023-04-03T09:20:22;5.50;;;2.00;;
52858;SDS011;38721;53.098;6.596;2023-04-03T09:22:34;4.88;;;2.00;;
52858;SDS011;38721;53.098;6.596;2023-04-03T09:27:38;4.85;;;1.60;;
52858;SDS011;38721;53.098;6.596;2023-04-03T09:30:04;4.47;;;1.67;;
52858;SDS011;38721;53.098;6.596;2023-04-03T09:32:33;4.13;;;1.90;;
52858;SDS011;38721;53.098;6.596;2023-04-03T09:35:04;4.05;;;2.10;;
52858;SDS011;38721;53.098;6.596;2023-04-03T09:38:00;4.43;;;1.65;;
52858;SDS011;38721;53.098;6.596;2023-04-03T09:45:52;3.58;;;1.40;;
52858;SDS011;38721;53.098;6.596;2023-04-03T09:48:20;3.63;;;1.35;;
52858;SDS011;38721;53.098;6.596;2023-04-03T09:59:27;1.88;;;1.08;;
52858;SDS011;38721;53.098;6.596;2023-04-03T10:01:29;2.47;;;1.20;;
52858;SDS011;38721;53.098;6.596;2023-04-03T10:04:09;2.90;;;1.20;;
52858;SDS011;38721;53.098;6.596;2023-04-03T10:06:42;3.95;;;1.30;;
52858;SDS011;38721;53.098;6.596;2023-04-03T10:09:22;2.17;;;1.33;;
52858;SDS011;38721;53.098;6.596;2023-04-03T10:14:38;2.17;;;1.17;;
52858;SDS011;38721;53.098;6.596;2023-04-03T10:17:46;2.55;;;1.25;;
52858;SDS011;38721;53.098;6.596;2023-04-03T10:23:32;1.88;;;0.93;;
52858;SDS011;38721;53.098;6.596;2023-04-03T10:28:43;1.83;;;1.17;;
52858;SDS011;38721;53.098;6.596;2023-04-03T10:31:25;1.88;;;1.27;;
52858;SDS011;38721;53.098;6.596;2023-04-03T10:34:06;1.83;;;1.17;;
52858;SDS011;38721;53.098;6.596;2023-04-03T10:42:08;2.13;;;1.10;;
52858;SDS011;38721;53.098;6.596;2023-04-03T10:44:49;3.35;;;1.00;;
52858;SDS011;38721;53.098;6.596;2023-04-03T10:55:34;2.70;;;1.30;;
52858;SDS011;38721;53.098;6.596;2023-04-03T10:58:05;2.55;;;1.17;;
52858;SDS011;38721;53.098;6.596;2023-04-03T11:00:39;3.20;;;1.13;;
52858;SDS011;38721;53.098;6.596;2023-04-03T11:03:15;2.38;;;1.13;;
52858;SDS011;38721;53.098;6.596;2023-04-03T11:05:52;2.22;;;0.82;;
52858;SDS011;38721;53.098;6.596;2023-04-03T11:16:25;4.53;;;1.00;;
52858;SDS011;38721;53.098;6.596;2023-04-03T11:18:56;1.80;;;0.90;;
52858;SDS011;38721;53.098;6.596;2023-04-03T11:21:34;2.35;;;1.08;;
52858;SDS011;38721;53.098;6.596;2023-04-03T11:24:06;2.42;;;0.93;;
52858;SDS011;38721;53.098;6.596;2023-04-03T11:26:42;2.78;;;1.10;;
52858;SDS011;38721;53.098;6.596;2023-04-03T11:29:12;1.50;;;0.90;;
52858;SDS011;38721;53.098;6.596;2023-04-03T11:37:14;2.38;;;1.10;;
52858;SDS011;38721;53.098;6.596;2023-04-03T11:39:47;3.53;;;1.58;;
52858;SDS011;38721;53.098;6.596;2023-04-03T11:44:51;2.92;;;1.23;;
52858;SDS011;38721;53.098;6.596;2023-04-03T11:47:52;5.97;;;1.50;;
52858;SDS011;38721;53.098;6.596;2023-04-03T11:50:47;2.45;;;1.17;;
52858;SDS011;38721;53.098;6.596;2023-04-03T11:55:44;3.70;;;1.27;;
52858;SDS011;38721;53.098;6.596;2023-04-03T11:58:23;2.50;;;1.23;;
52858;SDS011;38721;53.098;6.596;2023-04-03T12:08:44;2.63;;;1.30;;
52858;SDS011;38721;53.098;6.596;2023-04-03T12:11:31;3.10;;;1.42;;
52858;SDS011;38721;53.098;6.596;2023-04-03T12:16:32;1.67;;;1.00;;
52858;SDS011;38721;53.098;6.596;2023-04-03T12:46:18;3.92;;;1.25;;
52858;SDS011;38721;53.098;6.596;2023-04-03T12:48:58;2.78;;;1.40;;
52858;SDS011;38721;53.098;6.596;2023-04-03T12:54:03;3.50;;;1.30;;
52858;SDS011;38721;53.098;6.596;2023-04-03T12:56:38;2.90;;;1.27;;
52858;SDS011;38721;53.098;6.596;2023-04-03T13:01:42;4.22;;;1.30;;
52858;SDS011;38721;53.098;6.596;2023-04-03T13:04:10;3.17;;;1.38;;
52858;SDS011;38721;53.098;6.596;2023-04-03T13:06:38;3.85;;;1.50;;
52858;SDS011;38721;53.098;6.596;2023-04-03T13:09:06;3.15;;;1.50;;
52858;SDS011;38721;53.098;6.596;2023-04-03T13:11:45;3.35;;;1.48;;
52858;SDS011;38721;53.098;6.596;2023-04-03T13:14:15;3.10;;;1.20;;
52858;SDS011;38721;53.098;6.596;2023-04-03T13:17:06;2.40;;;1.40;;
52858;SDS011;38721;53.098;6.596;2023-04-03T13:19:37;2.95;;;1.40;;
52858;SDS011;38721;53.098;6.596;2023-04-03T13:22:05;4.35;;;1.67;;
52858;SDS011;38721;53.098;6.596;2023-04-03T13:24:44;3.25;;;1.50;;
52858;SDS011;38721;53.098;6.596;2023-04-03T13:27:13;4.03;;;1.50;;
52858;SDS011;38721;53.098;6.596;2023-04-03T13:29:39;4.25;;;1.17;;
52858;SDS011;38721;53.098;6.596;2023-04-03T13:32:05;2.40;;;1.23;;
52858;SDS011;38721;53.098;6.596;2023-04-03T13:34:40;1.85;;;1.10;;
52858;SDS011;38721;53.098;6.596;2023-04-03T13:37:18;2.22;;;1.20;;
52858;SDS011;38721;53.098;6.596;2023-04-03T13:39:56;3.28;;;1.58;;
52858;SDS011;38721;53.098;6.596;2023-04-03T13:42:24;2.65;;;1.27;;
52858;SDS011;38721;53.098;6.596;2023-04-03T13:48:19;3.95;;;1.30;;
52858;SDS011;38721;53.098;6.596;2023-04-03T13:51:03;3.10;;;1.23;;
52858;SDS011;38721;53.098;6.596;2023-04-03T13:53:55;2.92;;;1.23;;
52858;SDS011;38721;53.098;6.596;2023-04-03T13:58:56;2.50;;;1.30;;
52858;SDS011;38721;53.098;6.596;2023-04-03T14:04:27;1.70;;;1.00;;
52858;SDS011;38721;53.098;6.596;2023-04-03T14:06:56;2.38;;;1.10;;
52858;SDS011;38721;53.098;6.596;2023-04-03T14:09:22;2.08;;;1.20;;
52858;SDS011;38721;53.098;6.596;2023-04-03T14:11:57;2.78;;;1.30;;
52858;SDS011;38721;53.098;6.596;2023-04-03T14:14:33;2.90;;;1.20;;
52858;SDS011;38721;53.098;6.596;2023-04-03T14:17:01;3.10;;;1.20;;
52858;SDS011;38721;53.098;6.596;2023-04-03T14:19:30;2.50;;;1.30;;
52858;SDS011;38721;53.098;6.596;2023-04-03T14:22:22;2.03;;;1.20;;
52858;SDS011;38721;53.098;6.596;2023-04-03T14:24:55;1.88;;;1.08;;
52858;SDS011;38721;53.098;6.596;2023-04-03T14:29:52;3.00;;;1.20;;
52858;SDS011;38721;53.098;6.596;2023-04-03T14:32:20;1.65;;;0.93;;
52858;SDS011;38721;53.098;6.596;2023-04-03T14:34:46;2.00;;;1.30;;
52858;SDS011;38721;53.098;6.596;2023-04-03T14:37:14;1.42;;;0.98;;
52858;SDS011;38721;53.098;6.596;2023-04-03T14:42:15;3.20;;;1.25;;
52858;SDS011;38721;53.098;6.596;2023-04-03T14:44:43;2.90;;;1.42;;
52858;SDS011;38721;53.098;6.596;2023-04-03T14:47:11;2.17;;;1.20;;
52858;SDS011;38721;53.098;6.596;2023-04-03T14:49:38;2.58;;;1.05;;
52858;SDS011;38721;53.098;6.596;2023-04-03T14:52:04;3.25;;;1.20;;
52858;SDS011;38721;53.098;6.596;2023-04-03T14:54:30;2.72;;;1.10;;
52858;SDS011;38721;53.098;6.596;2023-04-03T14:56:57;2.15;;;1.00;;
52858;SDS011;38721;53.098;6.596;2023-04-03T14:59:24;2.85;;;1.65;;
52858;SDS011;38721;53.098;6.596;2023-04-03T15:01:51;3.47;;;1.00;;
52858;SDS011;38721;53.098;6.596;2023-04-03T15:04:18;1.85;;;0.80;;
52858;SDS011;38721;53.098;6.596;2023-04-03T15:06:45;4.20;;;1.25;;
52858;SDS011;38721;53.098;6.596;2023-04-03T15:09:15;1.52;;;1.00;;
52858;SDS011;38721;53.098;6.596;2023-04-03T15:11:49;2.22;;;1.00;;
52858;SDS011;38721;53.098;6.596;2023-04-03T15:14:16;1.98;;;1.00;;
52858;SDS011;38721;53.098;6.596;2023-04-03T15:16:43;2.63;;;1.00;;
52858;SDS011;38721;53.098;6.596;2023-04-03T15:19:09;2.30;;;1.30;;
52858;SDS011;38721;53.098;6.596;2023-04-03T15:21:35;2.22;;;1.15;;
52858;SDS011;38721;53.098;6.596;2023-04-03T15:24:01;3.20;;;1.40;;
52858;SDS011;38721;53.098;6.596;2023-04-03T15:26:27;3.17;;;1.45;;
52858;SDS011;38721;53.098;6.596;2023-04-03T15:28:56;3.13;;;1.23;;
52858;SDS011;38721;53.098;6.596;2023-04-03T15:31:22;2.17;;;0.95;;
52858;SDS011;38721;53.098;6.596;2023-04-03T15:33:48;2.03;;;1.10;;
52858;SDS011;38721;53.098;6.596;2023-04-03T15:36:13;3.58;;;1.20;;
52858;SDS011;38721;53.098;6.596;2023-04-03T15:38:39;2.13;;;1.23;;
52858;SDS011;38721;53.098;6.596;2023-04-03T15:41:05;2.85;;;1.38;;
52858;SDS011;38721;53.098;6.596;2023-04-03T15:43:30;1.63;;;1.10;;
52858;SDS011;38721;53.098;6.596;2023-04-03T15:46:01;3.47;;;1.20;;
52858;SDS011;38721;53.098;6.596;2023-04-03T15:48:27;2.47;;;1.25;;
52858;SDS011;38721;53.098;6.596;2023-04-03T15:50:53;3.45;;;1.10;;
52858;SDS011;38721;53.098;6.596;2023-04-03T15:53:19;2.15;;;1.20;;
52858;SDS011;38721;53.098;6.596;2023-04-03T15:55:45;2.65;;;1.10;;
52858;SDS011;38721;53.098;6.596;2023-04-03T15:58:11;2.03;;;1.20;;
52858;SDS011;38721;53.098;6.596;2023-04-03T16:00:40;2.25;;;1.33;;
52858;SDS011;38721;53.098;6.596;2023-04-03T16:03:08;2.05;;;1.08;;
52858;SDS011;38721;53.098;6.596;2023-04-03T16:05:37;1.65;;;1.20;;
52858;SDS011;38721;53.098;6.596;2023-04-03T16:08:04;2.55;;;1.10;;
52858;SDS011;38721;53.098;6.596;2023-04-03T16:10:34;2.83;;;1.10;;
52858;SDS011;38721;53.098;6.596;2023-04-03T16:13:01;2.05;;;0.93;;
52858;SDS011;38721;53.098;6.596;2023-04-03T16:15:27;3.00;;;1.20;;
52858;SDS011;38721;53.098;6.596;2023-04-03T16:17:54;3.80;;;1.20;;
52858;SDS011;38721;53.098;6.596;2023-04-03T16:20:19;2.03;;;0.90;;
52858;SDS011;38721;53.098;6.596;2023-04-03T16:22:47;1.63;;;0.90;;
52858;SDS011;38721;53.098;6.596;2023-04-03T16:25:13;1.92;;;1.00;;
52858;SDS011;38721;53.098;6.596;2023-04-03T16:27:39;1.33;;;0.88;;
52858;SDS011;38721;53.098;6.596;2023-04-03T16:30:05;1.77;;;0.88;;
52858;SDS011;38721;53.098;6.596;2023-04-03T16:32:32;1.50;;;0.80;;
52858;SDS011;38721;53.098;6.596;2023-04-03T16:34:58;1.40;;;0.90;;
52858;SDS011;38721;53.098;6.596;2023-04-03T16:37:24;1.90;;;0.80;;
52858;SDS011;38721;53.098;6.596;2023-04-03T16:39:50;1.63;;;0.80;;
52858;SDS011;38721;53.098;6.596;2023-04-03T16:42:16;2.58;;;1.10;;
52858;SDS011;38721;53.098;6.596;2023-04-03T16:44:41;1.48;;;0.82;;
52858;SDS011;38721;53.098;6.596;2023-04-03T16:47:07;2.42;;;1.00;;
52858;SDS011;38721;53.098;6.596;2023-04-03T16:49:34;2.08;;;1.02;;
52858;SDS011;38721;53.098;6.596;2023-04-03T16:52:02;1.73;;;0.70;;
52858;SDS011;38721;53.098;6.596;2023-04-03T16:54:29;1.20;;;0.88;;
52858;SDS011;38721;53.098;6.596;2023-04-03T16:56:55;2.42;;;0.80;;
52858;SDS011;38721;53.098;6.596;2023-04-03T16:59:21;2.30;;;1.00;;
52858;SDS011;38721;53.098;6.596;2023-04-03T17:01:47;1.60;;;0.75;;
52858;SDS011;38721;53.098;6.596;2023-04-03T17:04:12;2.65;;;1.10;;
52858;SDS011;38721;53.098;6.596;2023-04-03T17:06:38;2.92;;;1.10;;
52858;SDS011;38721;53.098;6.596;2023-04-03T17:09:05;2.67;;;1.15;;
52858;SDS011;38721;53.098;6.596;2023-04-03T17:11:31;1.92;;;0.88;;